Loves Park, Illinois
Current Conditions -  °F | °C
As of 6:54 AM on Tuesday 21 Oct 2014 (Local Time) from KRFD Reporting Station
Broken Clouds Broken Clouds  
Wind Chill: 43°   Ceiling: 4100
Heat Index: 46°   Visibility: 10mi
Dew Point: 40°   Wind: 6mph
Humidity: 79%   Direction: 360°N
Pressure: 30.15"   Gusts: NA
Location:  42.32°N, 89.06°W
Report Text: KRFD 211154Z 36005KT 10SM BKN041 08/04 A3015 RMK AO2 SLP212 T00780044 10094 20056 53025
Loading
Personal Weather Stations






























Interactive Weather Map
Tropical Storm Tracking
New forecast layout! Learn more

10-Day Weather Forecast

Advertisements
Track Severe Weather on mobile